• Join FlightAware (Why Join?)
  • Login
  • US Flag 
02:22AM EDT


 

Airport Tracker/Info


-or-


 

Live Flight TrackerFlight Track Log ✈ TCF3516 ✈ 24-Sep-2013 ✈ KMSY - KEWR

Flight Track Log - Related Links

Times and Time Zones

All times are in EDT time to prevent confusion due to time zone crossing. See the TCF3516 flight status page for this flight to view local times or setup timezone preferences in your user account.

Time Position Orientation Groundspeed Altitude Reporting Facility
EDT Latitude Longitude Course Direction KTS MPH feet Rate Location/Type
06:58AM 29.9761 -90.2539 53° Northeast 157 181 700  Level Houston Center
06:59AM 29.9658 -90.2567 193° South 156 180 1,400 1,920 Climbing Houston Center
07:00AM 29.9283 -90.2514 173° South 215 247 3,000 1,740 Climbing Houston Center
07:00AM 29.9256 -90.2439 113° Southeast 189 217 3,200 2,280 Climbing Houston Center
07:01AM 29.9567 -90.1908 56° Northeast 244 281 5,300 2,640 Climbing Houston Center
07:02AM 30.3158 -89.8667 52° Northeast  Level Estimated
07:02AM 30.0264 -90.1436 30° Northeast 279 321 8,500  Level Houston Center
07:03AM 30.3963 -89.7682 60° Northeast  Level Estimated
07:03AM 30.0997 -90.0906 32° Northeast 301 346 10,900  Level Houston Center
07:04AM 30.4767 -89.6696 53° Northeast  Level Estimated
07:04AM 30.1867 -90.0286 32° Northeast 358 412 13,000  Level Houston Center
07:05AM 30.2750 -89.9672 31° Northeast 369 425 14,900 900 Climbing Houston Center
07:06AM 30.3403 -89.8706 52° Northeast 379 436 14,900  Level Houston Center
07:07AM 30.4031 -89.7614 56° Northeast 383 441 14,900  Level Houston Center
07:08AM 30.4589 -89.6572 58° Northeast 379 436 14,900 840 Level Houston Center
07:09AM 30.5169 -89.5522 57° Northeast 382 440 16,700 1,980 Climbing Houston Center
07:10AM 30.5767 -89.4431 58° Northeast 397 457 19,000 1,980 Climbing Houston Center
07:11AM 30.6378 -89.3325 57° Northeast 405 466 20,700 1,560 Climbing Houston Center
07:12AM 30.6992 -89.2150 59° Northeast 423 487 22,200 1,380 Climbing Houston Center
07:13AM 30.7653 -89.0947 57° Northeast 439 505 23,600 1,380 Climbing Houston Center
07:14AM 30.8322 -88.9714 58° Northeast 450 518 25,000 1,320 Climbing Houston Center
07:15AM 30.9019 -88.8417 58° Northeast 459 528 26,400 1,200 Climbing Houston Center
07:16AM 30.9719 -88.7133 58° Northeast 467 537 27,500 960 Climbing Houston Center
07:17AM 31.0403 -88.5856 58° Northeast 479 551 28,400 1,020 Climbing Houston Center
07:18AM 31.1119 -88.4533 58° Northeast 484 557 29,600 1,140 Climbing Houston Center
07:19AM 31.1833 -88.3183 58° Northeast 497 572 30,800 1,200 Climbing Houston Center
07:20AM 31.2631 -88.1742 57° Northeast 490 564 32,100 1,140 Climbing Houston Center
07:21AM 31.3342 -88.0383 58° Northeast 488 562 33,200 1,080 Climbing Houston Center
07:22AM 31.4050 -87.9039 58° Northeast 485 558 34,400 840 Climbing Houston Center
07:23AM 31.4742 -87.7708 59° Northeast 479 551 35,000 240 Climbing Houston Center
07:24AM 31.5447 -87.6372 58° Northeast 481 554 35,000  Level Houston Center
07:25AM 31.6147 -87.5047 58° Northeast 479 551 35,000  Level Houston Center
07:26AM 31.6739 -87.3989 57° Northeast 477 549 35,000  Level Atlanta Center
07:27AM 31.7333 -87.2767 60° Northeast 477 549 35,000  Level Atlanta Center
07:28AM 31.8036 -87.1447 58° Northeast 477 549 35,000  Level Atlanta Center
07:29AM 31.8694 -87.0125 60° Northeast 477 549 35,000  Level Atlanta Center
07:30AM 31.9394 -86.8778 58° Northeast 477 549 35,000  Level Atlanta Center
07:31AM 32.0072 -86.7428 59° Northeast 477 549 35,000  Level Atlanta Center
07:32AM 32.0897 -86.5958 56° Northeast 485 558 35,000  Level Atlanta Center
07:33AM 32.1592 -86.4603 59° Northeast 485 558 35,000  Level Atlanta Center
07:34AM 32.2178 -86.3417 60° Northeast 480 552 35,000  Level Atlanta Center
07:35AM 32.3039 -86.1964 55° Northeast 480 552 35,000  Level Atlanta Center
07:36AM 32.3853 -86.0778 51° Northeast 480 552 35,000  Level Atlanta Center
07:37AM 32.4706 -85.9519 51° Northeast 474 545 35,000  Level Atlanta Center
07:38AM 32.5539 -85.8256 52° Northeast 486 559 35,000  Level Atlanta Center
07:39AM 32.6369 -85.7039 51° Northeast 486 559 35,000  Level Atlanta Center
07:40AM 32.7200 -85.5769 52° Northeast 481 554 35,000  Level Atlanta Center
07:41AM 32.8031 -85.4525 52° Northeast 481 554 35,000  Level Atlanta Center
07:42AM 32.8858 -85.3300 51° Northeast 476 548 35,000  Level Atlanta Center
07:43AM 32.9683 -85.2050 52° Northeast 481 554 35,000  Level Atlanta Center
07:44AM 33.0508 -85.0872 50° Northeast 473 544 35,000  Level Atlanta Center
07:45AM 33.1311 -84.9592 53° Northeast 473 544 35,000  Level Atlanta Center
07:46AM 33.2136 -84.8358 51° Northeast 473 544 35,000  Level Atlanta Center
07:47AM 33.2936 -84.7097 53° Northeast 478 550 35,000  Level Atlanta Center
07:48AM 33.3756 -84.5836 52° Northeast 478 550 35,000  Level Atlanta Center
07:49AM 33.4575 -84.4572 52° Northeast 484 557 35,000  Level Atlanta Center
07:50AM 33.5372 -84.3281 53° Northeast 484 557 35,000  Level Atlanta Center
07:51AM 33.6189 -84.2058 51° Northeast 477 549 35,000  Level Atlanta Center
07:52AM 33.6983 -84.0739 54° Northeast 477 549 35,000  Level Atlanta Center
07:53AM 33.7817 -83.9464 52° Northeast 477 549 35,000  Level Atlanta Center
07:54AM 33.8608 -83.8211 53° Northeast 482 555 35,000  Level Atlanta Center
07:55AM 33.9442 -83.6933 52° Northeast 482 555 35,000  Level Atlanta Center
07:56AM 34.0147 -83.5803 53° Northeast 482 555 35,000  Level Atlanta Center
07:57AM 34.0956 -83.4517 53° Northeast 482 555 35,000  Level Atlanta Center
07:58AM 34.1761 -83.3231 53° Northeast 482 555 35,000  Level Atlanta Center
07:59AM 34.2547 -83.1944 53° Northeast 482 555 35,000  Level Atlanta Center
08:00AM 34.3350 -83.0653 53° Northeast 482 555 35,000  Level Atlanta Center
08:01AM 34.4114 -82.9386 54° Northeast 482 555 35,000  Level Atlanta Center
08:02AM 34.4914 -82.8114 53° Northeast 477 549 35,000  Level Atlanta Center
08:03AM 34.5714 -82.6817 53° Northeast 477 549 35,000  Level Atlanta Center
08:04AM 34.6575 -82.5464 52° Northeast 467 537 35,000  Level Atlanta Center
08:05AM 34.7331 -82.4211 54° Northeast 461 531 35,000  Level Atlanta Center
08:06AM 34.8128 -82.2931 53° Northeast 461 531 35,000  Level Atlanta Center
08:07AM 34.8881 -82.1675 54° Northeast 461 531 35,000  Level Atlanta Center
08:08AM 34.9594 -82.0544 52° Northeast 461 531 35,000  Level Atlanta Center
08:09AM 35.0447 -81.9206 52° Northeast 461 531 35,000  Level Atlanta Center
08:10AM 35.1242 -81.7989 51° Northeast 461 531 35,000  Level Atlanta Center
08:11AM 35.2031 -81.6722 53° Northeast 467 537 35,000  Level Atlanta Center
08:12AM 35.2800 -81.5506 52° Northeast 462 532 35,000  Level Atlanta Center
08:13AM 35.3586 -81.4233 53° Northeast 462 532 35,000  Level Atlanta Center
08:14AM 35.4353 -81.2986 53° Northeast 462 532 35,000  Level Atlanta Center
08:15AM 35.4997 -81.1969 52° Northeast 462 532 35,000  Level Atlanta Center
08:16AM 35.5942 -81.0431 53° Northeast 473 544 35,000  Level Atlanta Center
08:17AM 35.6744 -80.9200 51° Northeast 462 532 35,000  Level Atlanta Center
08:18AM 35.7528 -80.7992 51° Northeast 457 526 35,000  Level Atlanta Center
08:19AM 35.8286 -80.6758 53° Northeast 451 519 35,000  Level Atlanta Center
08:20AM 35.9564 -80.4675 53° Northeast 446 513 35,000  Level Washington Center
08:21AM 36.0325 -80.3439 53° Northeast 447 514 35,000  Level Washington Center
08:22AM 36.1083 -80.2172 53° Northeast 447 514 35,000  Level Washington Center
08:23AM 36.1925 -80.0883 51° Northeast 447 514 35,000  Level Washington Center
08:24AM 36.2703 -79.9639 52° Northeast 439 505 35,000  Level Washington Center
08:25AM 36.3456 -79.8392 53° Northeast 444 511 35,000  Level Washington Center
08:26AM 36.4103 -79.7242 55° Northeast 449 517 35,000  Level Washington Center
08:27AM 36.4875 -79.5989 52° Northeast 454 522 35,000  Level Washington Center
08:28AM 36.5692 -79.4608 54° Northeast 453 521 35,000  Level Washington Center
08:29AM 36.6464 -79.3328 53° Northeast 448 516 35,000  Level Washington Center
08:30AM 36.7211 -79.2094 53° Northeast 448 516 35,000  Level Washington Center
08:31AM 36.7958 -79.0831 54° Northeast 448 516 35,000  Level Washington Center
08:32AM 36.8639 -78.9667 54° Northeast 448 516 35,000  Level Washington Center
08:33AM 36.9403 -78.8403 53° Northeast 448 516 35,000  Level Washington Center
08:34AM 37.0147 -78.7133 54° Northeast 448 516 35,000  Level Washington Center
08:35AM 37.0994 -78.5736 53° Northeast 448 516 35,000  Level Washington Center
08:36AM 37.1736 -78.4433 54° Northeast 448 516 35,000  Level Washington Center
08:37AM 37.2536 -78.3211 51° Northeast 448 516 35,000  Level Washington Center
08:38AM 37.3392 -78.2328 39° Northeast 443 510 35,000  Level Washington Center
08:39AM 37.4289 -78.1364 40° Northeast 437 503 35,000  Level Washington Center
08:40AM 37.5247 -78.0350 40° Northeast 432 497 35,000  Level Washington Center
08:41AM 37.6164 -77.9356 41° Northeast 432 497 35,000  Level Washington Center
08:42AM 37.7081 -77.8389 40° Northeast 432 497 35,000  Level Washington Center
08:43AM 37.8017 -77.7392 40° Northeast 437 503 35,000  Level Washington Center
08:44AM 37.8950 -77.6392 40° Northeast 437 503 35,000  Level Washington Center
08:45AM 37.9844 -77.5386 42° Northeast 437 503 35,000  Level Washington Center
08:46AM 38.0842 -77.4306 40° Northeast 437 503 35,000  Level Washington Center
08:47AM 38.1753 -77.3322 40° Northeast 437 503 35,000  Level Washington Center
08:48AM 38.2664 -77.2314 41° Northeast 437 503 35,000  Level Washington Center
08:49AM 38.3572 -77.1328 40° Northeast 437 503 35,000  Level Washington Center
08:50AM 38.4481 -77.0311 41° Northeast 437 503 35,000 -720 Level Washington Center
08:51AM 38.5411 -76.9294 41° Northeast 437 503 33,600 -1,440 Descending Washington Center
08:52AM 38.6319 -76.8300 41° Northeast 437 503 32,200 -1,380 Descending Washington Center
08:53AM 38.7225 -76.7278 41° Northeast 437 503 31,000 -720 Descending Washington Center
08:59AM 39.2360 -76.1320 41° Northeast 100 115 27,500 -660 Descending FlightAware
09:00AM 39.2840 -76.0760 42° Northeast 429 494 27,000 -480 Descending FlightAware
09:01AM 39.3390 -76.0100 43° Northeast 431 496 27,000  Level FlightAware
09:02AM 39.4200 -75.9160 42° Northeast 434 499 27,000  Level FlightAware
09:02AM 39.4670 -75.8590 43° Northeast 433 498 27,000  Level FlightAware
09:03AM 39.5290 -75.7870 42° Northeast 433 498 27,000  Level FlightAware
09:03AM 39.5760 -75.7320 42° Northeast 433 498 27,000  Level FlightAware
09:04AM 39.6190 -75.6820 42° Northeast 433 498 27,000  Level FlightAware
09:05AM 39.6650 -75.6290 42° Northeast 433 498 27,000 -3,960 Level FlightAware
09:05AM 39.7370 -75.5390 44° Northeast 433 498 22,200 -3,960 Descending FlightAware
09:06AM 39.7820 -75.4860 42° Northeast 433 498 22,200  Level FlightAware
09:06AM 39.8290 -75.4310 42° Northeast 433 498 22,200  Level FlightAware
09:07AM 39.8750 -75.3780 41° Northeast 433 498 22,200  Level FlightAware
09:08AM 39.9200 -75.3240 43° Northeast 433 498 22,200  Level FlightAware
09:08AM 39.9810 -75.2530 42° Northeast 433 498 22,200 -5,400 Level FlightAware
09:09AM 40.0833 -75.1197 42° Northeast 367 422 12,400 -5,760 Descending Washington Center
09:10AM 40.1456 -75.0406 44° Northeast 350 403 10,700 -1,620 Descending Washington Center
09:11AM 40.1833 -75.0000 39° Northeast 292 336 10,000 -1,200 Descending New York TRACON
09:12AM 40.2167 -74.9500 49° Northeast 278 320 9,100 -1,080 Descending New York TRACON
09:13AM 40.2833 -74.8667 44° Northeast 279 321 8,000 -600 Descending New York TRACON
09:14AM 40.3167 -74.7833 62° Northeast 283 326 8,000 -120 Level New York TRACON
09:15AM 40.3500 -74.6833 66° East 279 321 7,800 -900 Descending New York TRACON
09:16AM 40.3833 -74.6000 62° Northeast 272 313 6,300 -1,560 Descending New York TRACON
09:17AM 40.4167 -74.5167 62° Northeast 272 313 4,900 -1,500 Descending New York TRACON
09:18AM 40.4500 -74.4333 62° Northeast 263 303 3,500 -960 Descending New York TRACON
09:19AM 40.4833 -74.3500 62° Northeast 255 293 3,000 -300 Descending New York TRACON
09:20AM 40.5167 -74.2667 62° Northeast 259 298 3,000 -300 Level New York TRACON
09:21AM 40.5667 -74.2333 27° Northeast 199 229 2,500 -780 Descending New York TRACON
09:22AM 40.6167 -74.2167 14° North 132 152 1,600 -840 Descending New York TRACON
09:23AM 40.6333 -74.2000 37° Northeast 126 145 1,000 -720 Descending New York TRACON
09:24AM 40.6667 -74.1833 21° North 120 138 300 -720 Descending New York TRACON